This is the latest recevied weather packets stored in our database for station/object EA3KZ-1. If no packets are shown the sender has not sent any weather packets the latest 10 day(s).
| Time | Temp. | Humidity | Pressure | Rain* | Wind** | Luminosity | Snow |
|---|---|---|---|---|---|---|---|
| 1778034351 | 11.67° C | 77% | 1006.1 hPa | 0 mm | - | - | - |
| 1778033744 | 11.11° C | 77% | 1006.1 hPa | 0 mm | - | - | - |
| 1778033141 | 11.67° C | 76% | 1006 hPa | 0 mm | - | - | - |
| 1778032532 | 11.11° C | 77% | 1005.8 hPa | 0 mm | - | - | - |
| 1778031930 | 11.67° C | 76% | 1005.9 hPa | 0 mm | - | - | - |
| 1778031327 | 11.11° C | 79% | 1005.9 hPa | 0 mm | - | - | - |
| 1778030719 | 11.11° C | 80% | 1006 hPa | 0 mm | - | - | - |
| 1778030116 | 11.67° C | 79% | 1006 hPa | 0 mm | - | - | - |
| 1778029569 | 11.11° C | 79% | 1006 hPa | 0 mm | - | - | - |
| 1778028966 | 11.11° C | 82% | 1006.1 hPa | 0 mm | - | - | - |
| 1778028363 | 10.56° C | 85% | 1006.1 hPa | 0 mm | - | - | - |
| 1778027755 | 10.56° C | 85% | 1006.3 hPa | 0 mm | - | - | - |
| 1778027152 | 11.11° C | 84% | 1006.2 hPa | 0 mm | - | - | - |
| 1778026545 | 11.67° C | 85% | 1006.4 hPa | 0 mm | - | - | - |
| 1778025942 | 11.67° C | 81% | 1006.3 hPa | 0 mm | - | - | - |
| 1778025339 | 11.67° C | 82% | 1006.3 hPa | 0 mm | - | - | - |
| 1778024731 | 11.67° C | 84% | 1006.4 hPa | 0 mm | - | - | - |
| 1778024128 | 11.11° C | 87% | 1006.4 hPa | 0 mm | - | - | - |
| 1778023521 | 11.11° C | 88% | 1006.5 hPa | 0 mm | - | - | - |
| 1778022918 | 11.11° C | 88% | 1006.3 hPa | 0 mm | - | - | - |
| 1778022315 | 11.67° C | 86% | 1006.3 hPa | 0 mm | - | - | - |
| 1778021767 | 11.67° C | 85% | 1006.1 hPa | 0 mm | - | - | - |
| 1778021165 | 11.67° C | 84% | 1006.5 hPa | 0 mm | - | - | - |
| 1778020557 | 12.22° C | 81% | 1006.7 hPa | 0 mm | - | - | - |
| 1778019954 | 12.78° C | 80% | 1006.8 hPa | 0 mm | - | - | - |
* Rain latest hour (hover to see other rain measurements)
** Current wind speed in m/s (hover to see current wind gust speed)